sensor_id;sensor_type;location;lat;lon;timestamp;pressure;altitude;pressure_sealevel;temperature;humidity
32109;BME280;18624;50.042;8.436;2022-12-07T00:01:13;100646.13;;;4.09;100.00
32109;BME280;18624;50.042;8.436;2022-12-07T00:03:42;100646.91;;;4.10;100.00
32109;BME280;18624;50.042;8.436;2022-12-07T00:06:10;100643.81;;;4.07;100.00
32109;BME280;18624;50.042;8.436;2022-12-07T00:08:37;100631.03;;;4.08;100.00
32109;BME280;18624;50.042;8.436;2022-12-07T00:11:12;100625.94;;;4.03;100.00
32109;BME280;18624;50.042;8.436;2022-12-07T00:13:40;100621.72;;;4.05;100.00
32109;BME280;18624;50.042;8.436;2022-12-07T00:16:13;100618.19;;;4.05;100.00
32109;BME280;18624;50.042;8.436;2022-12-07T00:18:40;100623.28;;;4.06;100.00
32109;BME280;18624;50.042;8.436;2022-12-07T00:21:15;100625.56;;;4.04;100.00
32109;BME280;18624;50.042;8.436;2022-12-07T00:23:44;100622.47;;;4.02;100.00
32109;BME280;18624;50.042;8.436;2022-12-07T00:26:21;100611.19;;;4.00;100.00
32109;BME280;18624;50.042;8.436;2022-12-07T00:28:50;100601.09;;;3.94;100.00
32109;BME280;18624;50.042;8.436;2022-12-07T00:31:18;100607.66;;;3.89;100.00
32109;BME280;18624;50.042;8.436;2022-12-07T00:33:46;100603.75;;;3.87;100.00
32109;BME280;18624;50.042;8.436;2022-12-07T00:36:17;100595.22;;;3.85;100.00
32109;BME280;18624;50.042;8.436;2022-12-07T00:38:52;100556.69;;;3.58;100.00
32109;BME280;18624;50.042;8.436;2022-12-07T00:41:20;100595.19;;;3.81;100.00
32109;BME280;18624;50.042;8.436;2022-12-07T00:43:48;100592.47;;;3.81;100.00
32109;BME280;18624;50.042;8.436;2022-12-07T00:46:15;100586.66;;;3.79;100.00
32109;BME280;18624;50.042;8.436;2022-12-07T00:48:42;100593.66;;;3.80;100.00
32109;BME280;18624;50.042;8.436;2022-12-07T00:51:14;100606.06;;;3.85;100.00
32109;BME280;18624;50.042;8.436;2022-12-07T00:53:41;100601.03;;;3.87;100.00
32109;BME280;18624;50.042;8.436;2022-12-07T00:56:22;100589.84;;;3.88;100.00
32109;BME280;18624;50.042;8.436;2022-12-07T00:58:50;100578.94;;;3.81;100.00
32109;BME280;18624;50.042;8.436;2022-12-07T01:01:17;100593.69;;;3.87;100.00
32109;BME280;18624;50.042;8.436;2022-12-07T01:03:43;100598.75;;;3.89;100.00
32109;BME280;18624;50.042;8.436;2022-12-07T01:06:14;100589.84;;;3.88;100.00
32109;BME280;18624;50.042;8.436;2022-12-07T01:08:41;100596.81;;;3.89;100.00
32109;BME280;18624;50.042;8.436;2022-12-07T01:11:09;100591.38;;;3.89;100.00
32109;BME280;18624;50.042;8.436;2022-12-07T01:13:37;100582.81;;;3.87;100.00
32109;BME280;18624;50.042;8.436;2022-12-07T01:16:05;100586.69;;;3.86;100.00
32109;BME280;18624;50.042;8.436;2022-12-07T01:18:33;100566.53;;;3.80;100.00
32109;BME280;18624;50.042;8.436;2022-12-07T01:21:05;100582.09;;;3.90;100.00
32109;BME280;18624;50.042;8.436;2022-12-07T01:23:32;100582.09;;;3.90;100.00
32109;BME280;18624;50.042;8.436;2022-12-07T01:26:01;100576.63;;;3.83;100.00
32109;BME280;18624;50.042;8.436;2022-12-07T01:28:28;100573.88;;;3.79;100.00
32109;BME280;18624;50.042;8.436;2022-12-07T01:31:11;100568.47;;;3.79;100.00
32109;BME280;18624;50.042;8.436;2022-12-07T01:33:39;100586.28;;;3.80;100.00
32109;BME280;18624;50.042;8.436;2022-12-07T01:39:00;100542.75;;;3.59;100.00
32109;BME280;18624;50.042;8.436;2022-12-07T01:41:33;100584.41;;;3.88;100.00
32109;BME280;18624;50.042;8.436;2022-12-07T01:46:50;100585.53;;;3.87;100.00
32109;BME280;18624;50.042;8.436;2022-12-07T01:51:58;100547.38;;;3.55;100.00
32109;BME280;18624;50.042;8.436;2022-12-07T01:54:27;100575.00;;;3.71;100.00
32109;BME280;18624;50.042;8.436;2022-12-07T01:56:56;100576.53;;;3.72;100.00
32109;BME280;18624;50.042;8.436;2022-12-07T01:59:24;100567.66;;;3.75;100.00
32109;BME280;18624;50.042;8.436;2022-12-07T02:01:54;100570.00;;;3.77;100.00
32109;BME280;18624;50.042;8.436;2022-12-07T02:04:22;100566.91;;;3.78;100.00
32109;BME280;18624;50.042;8.436;2022-12-07T02:06:50;100578.94;;;3.81;100.00
32109;BME280;18624;50.042;8.436;2022-12-07T02:09:16;100570.81;;;3.85;100.00
32109;BME280;18624;50.042;8.436;2022-12-07T02:11:43;100548.72;;;3.79;100.00
32109;BME280;18624;50.042;8.436;2022-12-07T02:14:10;100563.47;;;3.85;100.00
32109;BME280;18624;50.042;8.436;2022-12-07T02:19:48;100561.53;;;3.86;100.00
32109;BME280;18624;50.042;8.436;2022-12-07T02:22:41;100555.72;;;3.84;100.00
32109;BME280;18624;50.042;8.436;2022-12-07T02:28:01;100540.13;;;3.70;100.00
32109;BME280;18624;50.042;8.436;2022-12-07T02:30:34;100555.28;;;3.81;100.00
32109;BME280;18624;50.042;8.436;2022-12-07T02:33:05;100555.28;;;3.81;100.00
32109;BME280;18624;50.042;8.436;2022-12-07T02:35:42;100553.34;;;3.78;100.00
32109;BME280;18624;50.042;8.436;2022-12-07T02:38:31;100545.22;;;3.78;100.00
32109;BME280;18624;50.042;8.436;2022-12-07T02:41:10;100546.00;;;3.79;100.00
32109;BME280;18624;50.042;8.436;2022-12-07T02:43:42;100533.56;;;3.78;100.00
32109;BME280;18624;50.042;8.436;2022-12-07T02:46:20;100537.84;;;3.75;100.00
32109;BME280;18624;50.042;8.436;2022-12-07T02:48:47;100539.75;;;3.71;100.00
32109;BME280;18624;50.042;8.436;2022-12-07T02:51:17;100530.78;;;3.64;100.00
32109;BME280;18624;50.042;8.436;2022-12-07T02:53:44;100537.78;;;3.68;100.00
32109;BME280;18624;50.042;8.436;2022-12-07T02:56:51;100538.91;;;3.64;100.00
32109;BME280;18624;50.042;8.436;2022-12-07T03:10:07;100508.16;;;3.42;100.00
32109;BME280;18624;50.042;8.436;2022-12-07T03:12:58;100528.03;;;3.60;100.00
32109;BME280;18624;50.042;8.436;2022-12-07T03:15:46;100527.28;;;3.63;100.00
32109;BME280;18624;50.042;8.436;2022-12-07T03:18:19;100529.63;;;3.65;100.00
32109;BME280;18624;50.042;8.436;2022-12-07T03:20:50;100529.25;;;3.66;100.00
32109;BME280;18624;50.042;8.436;2022-12-07T03:23:18;100526.53;;;3.63;100.00
32109;BME280;18624;50.042;8.436;2022-12-07T03:25:48;100532.75;;;3.67;100.00
32109;BME280;18624;50.042;8.436;2022-12-07T03:28:20;100531.59;;;3.68;100.00
32109;BME280;18624;50.042;8.436;2022-12-07T03:30:56;100528.13;;;3.71;100.00
32109;BME280;18624;50.042;8.436;2022-12-07T03:33:40;100532.00;;;3.73;100.00
32109;BME280;18624;50.042;8.436;2022-12-07T03:36:32;100527.78;;;3.76;100.00
32109;BME280;18624;50.042;8.436;2022-12-07T03:39:09;100526.25;;;3.78;100.00
32109;BME280;18624;50.042;8.436;2022-12-07T03:41:40;100528.19;;;3.81;100.00
32109;BME280;18624;50.042;8.436;2022-12-07T03:44:11;100515.41;;;3.82;100.00
32109;BME280;18624;50.042;8.436;2022-12-07T03:46:44;100521.22;;;3.80;100.00
32109;BME280;18624;50.042;8.436;2022-12-07T03:49:27;100510.00;;;3.86;100.00
32109;BME280;18624;50.042;8.436;2022-12-07T03:52:08;100520.47;;;3.87;100.00
32109;BME280;18624;50.042;8.436;2022-12-07T03:54:47;100517.75;;;3.87;100.00
32109;BME280;18624;50.042;8.436;2022-12-07T03:57:16;100510.78;;;3.86;100.00
32109;BME280;18624;50.042;8.436;2022-12-07T03:59:44;100502.63;;;3.86;100.00
32109;BME280;18624;50.042;8.436;2022-12-07T04:02:12;100514.66;;;3.85;100.00
32109;BME280;18624;50.042;8.436;2022-12-07T04:04:40;100505.75;;;3.85;100.00
32109;BME280;18624;50.042;8.436;2022-12-07T04:07:07;100501.09;;;3.85;100.00
32109;BME280;18624;50.042;8.436;2022-12-07T04:09:34;100498.78;;;3.84;100.00
32109;BME280;18624;50.042;8.436;2022-12-07T04:12:00;100509.19;;;3.81;100.00
32109;BME280;18624;50.042;8.436;2022-12-07T04:14:26;100501.47;;;3.80;100.00
32109;BME280;18624;50.042;8.436;2022-12-07T04:16:55;100499.13;;;3.82;100.00
32109;BME280;18624;50.042;8.436;2022-12-07T04:19:27;100504.56;;;3.82;100.00
32109;BME280;18624;50.042;8.436;2022-12-07T04:21:55;100497.19;;;3.79;100.00
32109;BME280;18624;50.042;8.436;2022-12-07T04:24:22;100489.78;;;3.72;100.00
32109;BME280;18624;50.042;8.436;2022-12-07T04:26:48;100504.56;;;3.82;100.00
32109;BME280;18624;50.042;8.436;2022-12-07T04:29:16;100504.97;;;3.84;100.00
32109;BME280;18624;50.042;8.436;2022-12-07T04:31:43;100506.91;;;3.84;100.00
32109;BME280;18624;50.042;8.436;2022-12-07T04:34:10;100501.06;;;3.81;100.00
32109;BME280;18624;50.042;8.436;2022-12-07T04:36:37;100488.69;;;3.84;100.00
32109;BME280;18624;50.042;8.436;2022-12-07T04:39:05;100501.47;;;3.87;100.00
32109;BME280;18624;50.042;8.436;2022-12-07T04:41:32;100499.56;;;3.88;100.00
32109;BME280;18624;50.042;8.436;2022-12-07T04:44:00;100500.72;;;3.87;100.00
32109;BME280;18624;50.042;8.436;2022-12-07T04:46:29;100492.97;;;3.89;100.00
32109;BME280;18624;50.042;8.436;2022-12-07T04:48:56;100495.31;;;3.90;100.00
32109;BME280;18624;50.042;8.436;2022-12-07T04:51:26;100492.22;;;3.88;100.00
32109;BME280;18624;50.042;8.436;2022-12-07T04:53:53;100492.22;;;3.88;100.00
32109;BME280;18624;50.042;8.436;2022-12-07T04:56:21;100492.97;;;3.89;100.00
32109;BME280;18624;50.042;8.436;2022-12-07T04:58:48;100497.25;;;3.90;100.00
32109;BME280;18624;50.042;8.436;2022-12-07T05:01:16;100491.03;;;3.89;100.00
32109;BME280;18624;50.042;8.436;2022-12-07T05:03:44;100495.31;;;3.94;100.00
32109;BME280;18624;50.042;8.436;2022-12-07T05:06:11;100493.38;;;3.94;100.00
32109;BME280;18624;50.042;8.436;2022-12-07T05:08:39;100487.19;;;3.94;100.00
32109;BME280;18624;50.042;8.436;2022-12-07T05:11:06;100472.03;;;3.86;100.00
32109;BME280;18624;50.042;8.436;2022-12-07T05:13:34;100495.31;;;3.94;100.00
32109;BME280;18624;50.042;8.436;2022-12-07T05:16:00;100493.38;;;3.94;100.00
32109;BME280;18624;50.042;8.436;2022-12-07T05:18:27;100494.56;;;3.93;100.00
32109;BME280;18624;50.042;8.436;2022-12-07T05:20:53;100498.44;;;3.92;100.00
32109;BME280;18624;50.042;8.436;2022-12-07T05:23:20;100495.31;;;3.94;100.00
32109;BME280;18624;50.042;8.436;2022-12-07T05:25:46;100487.16;;;3.90;100.00
32109;BME280;18624;50.042;8.436;2022-12-07T05:28:13;100495.31;;;3.94;100.00
32109;BME280;18624;50.042;8.436;2022-12-07T05:30:39;100491.88;;;3.97;100.00
32109;BME280;18624;50.042;8.436;2022-12-07T05:33:05;100491.47;;;3.98;100.00
32109;BME280;18624;50.042;8.436;2022-12-07T05:35:32;100489.50;;;3.95;100.00
32109;BME280;18624;50.042;8.436;2022-12-07T05:37:58;100482.94;;;3.96;100.00
32109;BME280;18624;50.042;8.436;2022-12-07T05:40:25;100488.00;;;3.98;100.00
32109;BME280;18624;50.042;8.436;2022-12-07T05:42:51;100484.50;;;3.97;100.00
32109;BME280;18624;50.042;8.436;2022-12-07T05:45:17;100488.00;;;3.98;100.00
32109;BME280;18624;50.042;8.436;2022-12-07T05:47:44;100487.59;;;3.99;100.00
32109;BME280;18624;50.042;8.436;2022-12-07T05:50:10;100491.50;;;4.02;100.00
32109;BME280;18624;50.042;8.436;2022-12-07T05:52:37;100488.41;;;4.03;100.00
32109;BME280;18624;50.042;8.436;2022-12-07T05:55:03;100499.66;;;4.05;100.00
32109;BME280;18624;50.042;8.436;2022-12-07T05:57:30;100495.00;;;4.06;100.00
32109;BME280;18624;50.042;8.436;2022-12-07T05:59:56;100495.78;;;4.06;100.00
32109;BME280;18624;50.042;8.436;2022-12-07T06:02:22;100487.66;;;4.06;100.00
32109;BME280;18624;50.042;8.436;2022-12-07T06:04:49;100488.03;;;4.09;100.00
32109;BME280;18624;50.042;8.436;2022-12-07T06:07:16;100489.94;;;4.04;100.00
32109;BME280;18624;50.042;8.436;2022-12-07T06:09:43;100484.53;;;4.04;100.00
32109;BME280;18624;50.042;8.436;2022-12-07T06:12:11;100485.69;;;4.03;100.00
32109;BME280;18624;50.042;8.436;2022-12-07T06:14:56;100487.22;;;4.04;100.00
32109;BME280;18624;50.042;8.436;2022-12-07T06:17:23;100483.31;;;3.95;100.00
32109;BME280;18624;50.042;8.436;2022-12-07T06:19:50;100347.00;;;3.14;100.00
32109;BME280;18624;50.042;8.436;2022-12-07T06:22:16;100486.84;;;4.10;100.00
32109;BME280;18624;50.042;8.436;2022-12-07T06:24:44;100489.19;;;4.07;100.00
32109;BME280;18624;50.042;8.436;2022-12-07T06:27:10;100494.22;;;4.09;100.00
32109;BME280;18624;50.042;8.436;2022-12-07T06:29:37;100498.91;;;4.12;100.00
32109;BME280;18624;50.042;8.436;2022-12-07T06:32:04;100493.47;;;4.12;100.00
32109;BME280;18624;50.042;8.436;2022-12-07T06:34:31;100496.97;;;4.13;100.00
32109;BME280;18624;50.042;8.436;2022-12-07T06:36:57;100502.38;;;4.13;100.00
32109;BME280;18624;50.042;8.436;2022-12-07T06:39:26;100498.50;;;4.14;100.00
32109;BME280;18624;50.042;8.436;2022-12-07T06:41:53;100496.97;;;4.13;100.00
32109;BME280;18624;50.042;8.436;2022-12-07T06:44:21;100499.28;;;4.11;100.00
32109;BME280;18624;50.042;8.436;2022-12-07T06:46:49;100498.13;;;4.12;100.00
32109;BME280;18624;50.042;8.436;2022-12-07T06:49:15;100500.06;;;4.11;100.00
32109;BME280;18624;50.042;8.436;2022-12-07T06:51:42;100498.13;;;4.12;100.00
32109;BME280;18624;50.042;8.436;2022-12-07T06:54:10;100497.72;;;4.10;100.00
32109;BME280;18624;50.042;8.436;2022-12-07T06:56:37;100497.72;;;4.10;100.00
32109;BME280;18624;50.042;8.436;2022-12-07T06:59:04;100501.97;;;4.07;100.00
32109;BME280;18624;50.042;8.436;2022-12-07T07:01:34;100452.25;;;3.78;100.00
32109;BME280;18624;50.042;8.436;2022-12-07T07:04:01;100500.84;;;4.12;100.00
32109;BME280;18624;50.042;8.436;2022-12-07T07:06:27;100507.03;;;4.12;100.00
32109;BME280;18624;50.042;8.436;2022-12-07T07:08:54;100508.97;;;4.12;100.00
32109;BME280;18624;50.042;8.436;2022-12-07T07:11:20;100510.13;;;4.14;100.00
32109;BME280;18624;50.042;8.436;2022-12-07T07:13:46;100505.09;;;4.13;100.00
32109;BME280;18624;50.042;8.436;2022-12-07T07:16:13;100514.41;;;4.12;100.00
32109;BME280;18624;50.042;8.436;2022-12-07T07:18:40;100470.06;;;3.83;100.00
32109;BME280;18624;50.042;8.436;2022-12-07T07:21:06;100509.34;;;4.06;100.00
32109;BME280;18624;50.042;8.436;2022-12-07T07:23:33;100512.81;;;4.07;100.00
32109;BME280;18624;50.042;8.436;2022-12-07T07:25:59;100512.81;;;4.07;100.00
32109;BME280;18624;50.042;8.436;2022-12-07T07:28:26;100504.63;;;3.93;100.00
32109;BME280;18624;50.042;8.436;2022-12-07T07:30:52;100512.41;;;4.05;100.00
32109;BME280;18624;50.042;8.436;2022-12-07T07:33:19;100529.06;;;4.03;100.00
32109;BME280;18624;50.042;8.436;2022-12-07T07:35:45;100519.78;;;4.04;100.00
32109;BME280;18624;50.042;8.436;2022-12-07T07:38:11;100527.91;;;4.01;100.00
32109;BME280;18624;50.042;8.436;2022-12-07T07:40:38;100523.63;;;4.00;100.00
32109;BME280;18624;50.042;8.436;2022-12-07T07:43:04;100529.06;;;4.00;100.00
32109;BME280;18624;50.042;8.436;2022-12-07T07:45:31;100525.19;;;4.04;100.00
32109;BME280;18624;50.042;8.436;2022-12-07T07:47:57;100520.94;;;4.03;100.00
32109;BME280;18624;50.042;8.436;2022-12-07T07:50:24;100515.13;;;4.01;100.00
32109;BME280;18624;50.042;8.436;2022-12-07T07:52:50;100524.06;;;4.09;100.00
32109;BME280;18624;50.042;8.436;2022-12-07T07:55:17;100521.00;;;4.11;100.00
32109;BME280;18624;50.042;8.436;2022-12-07T07:57:43;100534.97;;;4.16;100.00
32109;BME280;18624;50.042;8.436;2022-12-07T08:00:17;100533.44;;;4.19;100.00
32109;BME280;18624;50.042;8.436;2022-12-07T08:02:43;100531.09;;;4.17;100.00
32109;BME280;18624;50.042;8.436;2022-12-07T08:05:11;100535.34;;;4.18;100.00
32109;BME280;18624;50.042;8.436;2022-12-07T08:07:38;100532.25;;;4.16;100.00
32109;BME280;18624;50.042;8.436;2022-12-07T08:10:05;100531.84;;;4.18;100.00
32109;BME280;18624;50.042;8.436;2022-12-07T08:12:36;100536.91;;;4.19;100.00
32109;BME280;18624;50.042;8.436;2022-12-07T08:15:03;100499.22;;;3.93;100.00
32109;BME280;18624;50.042;8.436;2022-12-07T08:17:30;100531.84;;;4.18;100.00
32109;BME280;18624;50.042;8.436;2022-12-07T08:19:56;100541.56;;;4.19;100.00
32109;BME280;18624;50.042;8.436;2022-12-07T08:22:22;100537.28;;;4.18;100.00
32109;BME280;18624;50.042;8.436;2022-12-07T08:24:49;100540.00;;;4.18;100.00
32109;BME280;18624;50.042;8.436;2022-12-07T08:27:15;100540.78;;;4.15;100.00
32109;BME280;18624;50.042;8.436;2022-12-07T08:29:42;100551.63;;;4.15;100.00
32109;BME280;18624;50.042;8.436;2022-12-07T08:32:08;100542.69;;;4.14;100.00
32109;BME280;18624;50.042;8.436;2022-12-07T08:34:35;100539.97;;;4.11;100.00
32109;BME280;18624;50.042;8.436;2022-12-07T08:37:03;100537.63;;;4.09;100.00
32109;BME280;18624;50.042;8.436;2022-12-07T08:39:30;100538.00;;;4.07;100.00
32109;BME280;18624;50.042;8.436;2022-12-07T08:41:58;100540.72;;;4.07;100.00
32109;BME280;18624;50.042;8.436;2022-12-07T08:44:24;100532.56;;;4.04;100.00
32109;BME280;18624;50.042;8.436;2022-12-07T08:46:55;100535.66;;;4.02;100.00
32109;BME280;18624;50.042;8.436;2022-12-07T08:49:27;100544.25;;;4.15;100.00
32109;BME280;18624;50.042;8.436;2022-12-07T08:51:55;100548.13;;;4.18;100.00
32109;BME280;18624;50.042;8.436;2022-12-07T08:54:22;100549.31;;;4.20;100.00
32109;BME280;18624;50.042;8.436;2022-12-07T08:56:48;100547.00;;;4.22;100.00
32109;BME280;18624;50.042;8.436;2022-12-07T08:59:24;100548.19;;;4.25;100.00
32109;BME280;18624;50.042;8.436;2022-12-07T09:01:51;100542.38;;;4.30;100.00
32109;BME280;18624;50.042;8.436;2022-12-07T09:04:18;100544.34;;;4.33;100.00
32109;BME280;18624;50.042;8.436;2022-12-07T09:06:44;100548.63;;;4.38;100.00
32109;BME280;18624;50.042;8.436;2022-12-07T09:09:11;100551.72;;;4.40;100.00
32109;BME280;18624;50.042;8.436;2022-12-07T09:11:39;100553.69;;;4.43;100.00
32109;BME280;18624;50.042;8.436;2022-12-07T09:14:06;100543.19;;;4.41;100.00
32109;BME280;18624;50.042;8.436;2022-12-07T09:16:32;100549.44;;;4.49;100.00
32109;BME280;18624;50.042;8.436;2022-12-07T09:18:59;100549.06;;;4.50;100.00
32109;BME280;18624;50.042;8.436;2022-12-07T09:21:25;100552.94;;;4.53;100.00
32109;BME280;18624;50.042;8.436;2022-12-07T09:23:51;100551.41;;;4.55;100.00
32109;BME280;18624;50.042;8.436;2022-12-07T09:26:18;100551.41;;;4.55;100.00
32109;BME280;18624;50.042;8.436;2022-12-07T09:28:44;100558.38;;;4.56;100.00
32109;BME280;18624;50.042;8.436;2022-12-07T09:31:11;100561.50;;;4.55;100.00
32109;BME280;18624;50.042;8.436;2022-12-07T09:33:59;100549.06;;;4.57;100.00
32109;BME280;18624;50.042;8.436;2022-12-07T09:36:27;100546.78;;;4.60;100.00
32109;BME280;18624;50.042;8.436;2022-12-07T09:38:55;100426.34;;;3.84;100.00
32109;BME280;18624;50.042;8.436;2022-12-07T09:41:23;100554.16;;;4.66;100.00
32109;BME280;18624;50.042;8.436;2022-12-07T09:43:51;100555.31;;;4.69;100.00
32109;BME280;18624;50.042;8.436;2022-12-07T09:46:19;100552.59;;;4.72;100.00
32109;BME280;18624;50.042;8.436;2022-12-07T09:48:47;100553.75;;;4.71;100.00
32109;BME280;18624;50.042;8.436;2022-12-07T09:51:20;100551.06;;;4.75;100.00
32109;BME280;18624;50.042;8.436;2022-12-07T09:53:52;100553.81;;;4.82;100.00
32109;BME280;18624;50.042;8.436;2022-12-07T09:56:19;100552.66;;;4.87;100.00
32109;BME280;18624;50.042;8.436;2022-12-07T09:58:47;100550.69;;;4.91;100.00
32109;BME280;18624;50.042;8.436;2022-12-07T10:01:19;100541.00;;;4.93;100.00
32109;BME280;18624;50.042;8.436;2022-12-07T10:03:51;100538.31;;;4.97;100.00
32109;BME280;18624;50.042;8.436;2022-12-07T10:06:19;100529.75;;;4.98;100.00
32109;BME280;18624;50.042;8.436;2022-12-07T10:08:45;100533.25;;;4.99;100.00
32109;BME280;18624;50.042;8.436;2022-12-07T10:11:12;100529.41;;;5.00;100.00
32109;BME280;18624;50.042;8.436;2022-12-07T10:13:43;100531.72;;;5.01;100.00
32109;BME280;18624;50.042;8.436;2022-12-07T10:18:51;100534.81;;;5.07;100.00
32109;BME280;18624;50.042;8.436;2022-12-07T10:21:20;100526.69;;;5.11;100.00
32109;BME280;18624;50.042;8.436;2022-12-07T10:24:00;100525.13;;;5.13;100.00
32109;BME280;18624;50.042;8.436;2022-12-07T10:29:17;100511.16;;;5.11;100.00
32109;BME280;18624;50.042;8.436;2022-12-07T10:31:46;100516.19;;;5.13;100.00
32109;BME280;18624;50.042;8.436;2022-12-07T10:34:28;100510.38;;;5.11;100.00
32109;BME280;18624;50.042;8.436;2022-12-07T10:39:52;100507.66;;;5.03;100.00
32109;BME280;18624;50.042;8.436;2022-12-07T10:42:23;100503.00;;;5.00;100.00
32109;BME280;18624;50.042;8.436;2022-12-07T10:45:17;100505.72;;;5.00;100.00
32109;BME280;18624;50.042;8.436;2022-12-07T10:56:12;100499.50;;;5.07;100.00
32109;BME280;18624;50.042;8.436;2022-12-07T11:01:46;100490.94;;;5.08;100.00
32109;BME280;18624;50.042;8.436;2022-12-07T11:04:35;100488.25;;;5.12;100.00
32109;BME280;18624;50.042;8.436;2022-12-07T11:07:22;100486.69;;;5.15;100.00
32109;BME280;18624;50.042;8.436;2022-12-07T11:21:16;100336.16;;;4.44;100.00
32109;BME280;18624;50.042;8.436;2022-12-07T11:27:06;100476.56;;;5.40;100.00
32109;BME280;18624;50.042;8.436;2022-12-07T11:30:02;100474.25;;;5.42;100.00
32109;BME280;18624;50.042;8.436;2022-12-07T11:37:45;100461.03;;;5.44;100.00
32109;BME280;18624;50.042;8.436;2022-12-07T11:40:30;100461.44;;;5.46;100.00
32109;BME280;18624;50.042;8.436;2022-12-07T11:43:34;100450.19;;;5.41;100.00
32109;BME280;18624;50.042;8.436;2022-12-07T11:46:04;100455.19;;;5.53;100.00
32109;BME280;18624;50.042;8.436;2022-12-07T11:48:37;100457.53;;;5.54;100.00
32109;BME280;18624;50.042;8.436;2022-12-07T11:51:07;100455.59;;;5.55;100.00
32109;BME280;18624;50.042;8.436;2022-12-07T11:53:40;100452.09;;;5.54;100.00
32109;BME280;18624;50.042;8.436;2022-12-07T11:56:15;100431.91;;;5.45;100.00
32109;BME280;18624;50.042;8.436;2022-12-07T12:01:28;100431.91;;;5.55;100.00
32109;BME280;18624;50.042;8.436;2022-12-07T12:06:44;100438.50;;;5.54;100.00
32109;BME280;18624;50.042;8.436;2022-12-07T12:09:14;100434.22;;;5.53;100.00
32109;BME280;18624;50.042;8.436;2022-12-07T12:15:37;100424.91;;;5.54;100.00
32109;BME280;18624;50.042;8.436;2022-12-07T12:21:11;100383.81;;;5.24;100.00
32109;BME280;18624;50.042;8.436;2022-12-07T12:23:54;100421.44;;;5.50;100.00
32109;BME280;18624;50.042;8.436;2022-12-07T12:26:25;100415.22;;;5.50;100.00
32109;BME280;18624;50.042;8.436;2022-12-07T12:28:58;100417.16;;;5.49;100.00
32109;BME280;18624;50.042;8.436;2022-12-07T12:33:59;100416.75;;;5.51;100.00
32109;BME280;18624;50.042;8.436;2022-12-07T12:36:44;100416.75;;;5.54;100.00
32109;BME280;18624;50.042;8.436;2022-12-07T12:46:47;100409.00;;;5.49;100.00
32109;BME280;18624;50.042;8.436;2022-12-07T12:54:20;100406.66;;;5.44;100.00
32109;BME280;18624;50.042;8.436;2022-12-07T13:02:25;100384.94;;;5.41;100.00
32109;BME280;18624;50.042;8.436;2022-12-07T13:08:24;100378.75;;;5.37;100.00
32109;BME280;18624;50.042;8.436;2022-12-07T13:10:45;100366.34;;;5.21;100.00
32109;BME280;18624;50.042;8.436;2022-12-07T13:18:43;100374.84;;;5.30;100.00
32109;BME280;18624;50.042;8.436;2022-12-07T13:28:52;100380.69;;;5.22;100.00
32109;BME280;18624;50.042;8.436;2022-12-07T13:31:25;100383.41;;;5.22;100.00
32109;BME280;18624;50.042;8.436;2022-12-07T13:33:56;100377.97;;;5.22;100.00
32109;BME280;18624;50.042;8.436;2022-12-07T13:36:25;100381.88;;;5.21;100.00
32109;BME280;18624;50.042;8.436;2022-12-07T13:38:57;100378.78;;;5.19;100.00
32109;BME280;18624;50.042;8.436;2022-12-07T13:41:26;100387.31;;;5.17;100.00
32109;BME280;18624;50.042;8.436;2022-12-07T13:44:08;100384.59;;;5.17;100.00
32109;BME280;18624;50.042;8.436;2022-12-07T13:49:18;100389.25;;;5.17;100.00
32109;BME280;18624;50.042;8.436;2022-12-07T13:51:45;100374.13;;;5.16;100.00
32109;BME280;18624;50.042;8.436;2022-12-07T13:54:13;100363.25;;;5.08;100.00
32109;BME280;18624;50.042;8.436;2022-12-07T13:56:39;100371.78;;;5.18;100.00
32109;BME280;18624;50.042;8.436;2022-12-07T13:59:24;100376.84;;;5.19;100.00
32109;BME280;18624;50.042;8.436;2022-12-07T14:01:52;100380.69;;;5.22;100.00
32109;BME280;18624;50.042;8.436;2022-12-07T14:07:00;100386.13;;;5.25;100.00
32109;BME280;18624;50.042;8.436;2022-12-07T14:09:29;100376.81;;;5.26;100.00
32109;BME280;18624;50.042;8.436;2022-12-07T14:11:57;100380.31;;;5.27;100.00
32109;BME280;18624;50.042;8.436;2022-12-07T14:14:30;100383.41;;;5.25;100.00
32109;BME280;18624;50.042;8.436;2022-12-07T14:17:19;100381.50;;;5.22;100.00
32109;BME280;18624;50.042;8.436;2022-12-07T14:19:49;100379.56;;;5.23;100.00
32109;BME280;18624;50.042;8.436;2022-12-07T14:22:25;100382.66;;;5.18;100.00
32109;BME280;18624;50.042;8.436;2022-12-07T14:25:11;100380.72;;;5.15;100.00
32109;BME280;18624;50.042;8.436;2022-12-07T14:27:54;100372.22;;;5.09;100.00
32109;BME280;18624;50.042;8.436;2022-12-07T14:30:24;100376.47;;;5.06;100.00
32109;BME280;18624;50.042;8.436;2022-12-07T14:32:54;100372.59;;;5.04;100.00
32109;BME280;18624;50.042;8.436;2022-12-07T14:35:21;100369.88;;;5.04;100.00
32109;BME280;18624;50.042;8.436;2022-12-07T14:37:48;100362.13;;;5.06;100.00
32109;BME280;18624;50.042;8.436;2022-12-07T14:40:24;100369.09;;;5.03;100.00
32109;BME280;18624;50.042;8.436;2022-12-07T14:42:55;100364.47;;;5.00;100.00
32109;BME280;18624;50.042;8.436;2022-12-07T14:45:23;100369.13;;;5.00;100.00
32109;BME280;18624;50.042;8.436;2022-12-07T14:47:49;100370.66;;;4.97;100.00
32109;BME280;18624;50.042;8.436;2022-12-07T14:50:38;100368.72;;;4.98;100.00
32109;BME280;18624;50.042;8.436;2022-12-07T14:53:48;100363.28;;;4.98;100.00
32109;BME280;18624;50.042;8.436;2022-12-07T14:56:22;100361.34;;;4.98;100.00
32109;BME280;18624;50.042;8.436;2022-12-07T14:58:49;100328.03;;;4.73;100.00
32109;BME280;18624;50.042;8.436;2022-12-07T15:01:15;100351.28;;;4.92;100.00
32109;BME280;18624;50.042;8.436;2022-12-07T15:03:41;100224.53;;;4.06;100.00
32109;BME280;18624;50.042;8.436;2022-12-07T15:06:13;100364.06;;;4.98;100.00